createdAt,value
2022-11-17T00:03:36.334Z,2.80
2022-11-17T00:08:42.390Z,0.80
2022-11-17T00:14:06.712Z,2.63
2022-11-17T00:19:27.818Z,4.18
2022-11-17T00:24:32.102Z,1.50
2022-11-17T00:29:39.312Z,3.33
2022-11-17T00:34:45.759Z,2.72
2022-11-17T00:39:49.300Z,1.25
2022-11-17T00:44:54.404Z,1.30
2022-11-17T00:49:59.445Z,1.88
2022-11-17T00:55:03.700Z,2.42
2022-11-17T01:00:10.517Z,1.13
2022-11-17T01:05:13.786Z,1.00
2022-11-17T01:10:17.986Z,1.23
2022-11-17T01:15:25.533Z,2.70
2022-11-17T01:20:30.631Z,3.35
2022-11-17T01:25:33.860Z,0.90
2022-11-17T01:30:41.356Z,1.27
2022-11-17T01:35:45.066Z,1.63
2022-11-17T01:40:50.790Z,1.30
2022-11-17T01:45:55.561Z,1.80
2022-11-17T01:50:58.902Z,1.67
2022-11-17T01:56:04.840Z,1.92
2022-11-17T02:01:10.232Z,2.05
2022-11-17T02:06:17.217Z,1.80
2022-11-17T02:11:22.071Z,3.15
2022-11-17T02:16:27.092Z,1.67
2022-11-17T02:22:02.075Z,2.25
2022-11-17T02:27:41.687Z,2.03
2022-11-17T02:32:58.389Z,3.15
2022-11-17T02:38:07.923Z,6.47
2022-11-17T02:43:29.846Z,3.13
2022-11-17T02:48:38.170Z,1.77
2022-11-17T02:53:43.969Z,4.38
2022-11-17T02:58:49.111Z,2.53
2022-11-17T03:04:05.013Z,1.52
2022-11-17T03:09:14.067Z,1.85
2022-11-17T03:14:22.563Z,5.82
2022-11-17T03:19:30.989Z,1.40
2022-11-17T03:24:36.738Z,3.97
2022-11-17T03:29:44.375Z,2.22
2022-11-17T03:34:51.779Z,2.13
2022-11-17T03:39:56.712Z,2.03
2022-11-17T03:45:03.075Z,5.75
2022-11-17T03:50:16.538Z,1.30
2022-11-17T03:55:21.021Z,1.50
2022-11-17T04:00:25.404Z,3.20
2022-11-17T04:05:31.171Z,2.05
2022-11-17T04:10:54.868Z,4.90
2022-11-17T04:15:59.391Z,2.58
2022-11-17T04:21:05.315Z,4.30
2022-11-17T04:26:28.986Z,6.47
2022-11-17T04:31:33.655Z,2.72
2022-11-17T04:36:40.934Z,2.15
2022-11-17T04:42:02.126Z,3.10
2022-11-17T04:47:07.723Z,6.18
2022-11-17T04:52:16.503Z,2.38
2022-11-17T04:57:20.248Z,4.10
2022-11-17T05:02:24.483Z,1.67
2022-11-17T05:07:32.125Z,9.68
2022-11-17T05:12:53.129Z,6.18
2022-11-17T05:17:57.324Z,5.20
2022-11-17T05:23:20.323Z,5.68
2022-11-17T05:28:25.746Z,8.20
2022-11-17T05:33:33.581Z,7.97
2022-11-17T05:38:44.198Z,4.20
2022-11-17T05:43:48.413Z,6.55
2022-11-17T05:48:55.617Z,9.88
2022-11-17T05:54:00.919Z,11.15
2022-11-17T05:59:11.808Z,9.32
2022-11-17T06:04:16.338Z,13.90
2022-11-17T06:09:22.098Z,11.05
2022-11-17T06:14:25.578Z,10.38
2022-11-17T06:19:31.408Z,10.07
2022-11-17T06:24:37.625Z,17.02
2022-11-17T06:29:44.702Z,12.02
2022-11-17T06:34:55.617Z,9.70
2022-11-17T06:40:02.064Z,11.82
2022-11-17T06:45:08.831Z,15.95
2022-11-17T06:50:15.462Z,5.88
2022-11-17T06:55:20.135Z,10.40
2022-11-17T07:00:25.098Z,13.95
2022-11-17T07:05:29.635Z,11.15
2022-11-17T07:10:37.817Z,3.65
2022-11-17T07:15:44.353Z,13.03
2022-11-17T07:20:50.609Z,17.08
2022-11-17T07:25:56.928Z,12.90
2022-11-17T07:31:02.831Z,11.85
2022-11-17T07:36:09.654Z,7.28
2022-11-17T07:41:15.696Z,13.90
2022-11-17T07:46:22.804Z,11.60
2022-11-17T07:51:27.201Z,6.93
2022-11-17T07:56:32.304Z,11.25
2022-11-17T08:01:36.075Z,6.97
2022-11-17T08:06:40.196Z,7.80
2022-11-17T08:11:45.615Z,9.48
2022-11-17T08:16:49.099Z,13.15
2022-11-17T08:21:52.994Z,8.27
2022-11-17T08:27:00.409Z,15.85
2022-11-17T08:32:03.912Z,8.57
2022-11-17T08:37:08.617Z,8.20
2022-11-17T08:42:20.222Z,5.90
2022-11-17T08:47:24.209Z,9.68
2022-11-17T08:52:29.140Z,5.60
2022-11-17T08:57:36.318Z,5.18
2022-11-17T09:02:40.109Z,8.45
2022-11-17T09:07:44.140Z,7.28
2022-11-17T09:12:50.814Z,6.65
2022-11-17T09:17:56.009Z,7.80
2022-11-17T09:23:05.826Z,11.15
2022-11-17T09:28:12.116Z,7.70
2022-11-17T09:33:16.843Z,7.25
2022-11-17T09:38:20.207Z,5.40
2022-11-17T09:43:30.136Z,7.75
2022-11-17T09:48:41.500Z,7.70
2022-11-17T09:53:50.034Z,10.38
2022-11-17T09:58:56.198Z,8.20
2022-11-17T10:04:02.127Z,6.05
2022-11-17T10:09:08.516Z,8.75
2022-11-17T10:14:15.997Z,15.45
2022-11-17T10:19:24.499Z,8.40
2022-11-17T10:24:35.050Z,6.60
2022-11-17T10:29:45.393Z,9.68
2022-11-17T10:34:49.171Z,6.35
2022-11-17T10:40:10.995Z,8.95
2022-11-17T10:45:18.209Z,4.88
2022-11-17T10:50:24.601Z,7.65
2022-11-17T10:55:29.613Z,8.85
2022-11-17T11:00:35.683Z,3.90
2022-11-17T11:05:39.171Z,4.82
2022-11-17T11:10:44.671Z,5.53
2022-11-17T11:15:49.853Z,7.03
2022-11-17T11:20:59.800Z,4.00
2022-11-17T11:26:10.198Z,8.25
2022-11-17T11:31:20.941Z,4.63
2022-11-17T11:36:29.746Z,6.25
2022-11-17T11:41:42.359Z,2.10
2022-11-17T11:46:51.047Z,3.15
2022-11-17T11:51:55.619Z,4.38
2022-11-17T11:56:59.896Z,8.43
2022-11-17T12:02:20.276Z,8.75
2022-11-17T12:07:27.399Z,4.55
2022-11-17T12:12:39.442Z,5.43
2022-11-17T12:18:00.160Z,3.92
2022-11-17T12:23:15.121Z,10.60
2022-11-17T12:28:30.956Z,5.30
2022-11-17T12:34:12.531Z,7.35
2022-11-17T12:40:01.737Z,5.63
2022-11-17T12:45:07.840Z,4.20
2022-11-17T12:50:44.546Z,8.30
2022-11-17T12:56:26.253Z,7.22
2022-11-17T13:01:35.617Z,9.32
2022-11-17T13:06:42.816Z,6.53
2022-11-17T13:11:59.745Z,11.90
2022-11-17T13:17:03.461Z,7.40
2022-11-17T13:22:41.886Z,14.90
2022-11-17T13:27:51.093Z,9.75
2022-11-17T13:33:02.746Z,11.23
2022-11-17T13:38:17.785Z,6.63
2022-11-17T13:43:25.499Z,11.02
2022-11-17T13:48:33.819Z,9.23
2022-11-17T13:53:39.230Z,3.00
2022-11-17T13:58:44.150Z,5.43
2022-11-17T14:03:47.774Z,2.60
2022-11-17T14:09:07.688Z,1.10
2022-11-17T14:19:30.658Z,2.22
2022-11-17T14:24:36.538Z,0.77
2022-11-17T14:29:39.830Z,2.85
2022-11-17T14:34:43.188Z,1.25
2022-11-17T14:39:48.480Z,2.53
2022-11-17T14:44:51.843Z,1.15
2022-11-17T14:49:58.226Z,1.48
2022-11-17T14:55:02.983Z,1.17
2022-11-17T15:00:07.732Z,3.22
2022-11-17T15:05:12.210Z,2.92
2022-11-17T15:10:18.452Z,1.35
2022-11-17T15:15:24.110Z,1.17
2022-11-17T15:20:29.441Z,1.63
2022-11-17T15:25:36.926Z,2.35
2022-11-17T15:30:51.614Z,1.05
2022-11-17T15:36:04.469Z,3.20
2022-11-17T15:41:15.355Z,3.95
2022-11-17T15:46:20.295Z,2.60
2022-11-17T15:51:25.181Z,4.13
2022-11-17T15:56:30.910Z,4.13
2022-11-17T16:01:37.682Z,4.10
2022-11-17T16:06:42.856Z,5.07
2022-11-17T16:11:48.837Z,5.57
2022-11-17T16:16:52.081Z,4.20
2022-11-17T16:21:59.326Z,3.67
2022-11-17T16:27:06.227Z,4.68
2022-11-17T16:32:13.217Z,4.22
2022-11-17T16:37:17.417Z,3.90
2022-11-17T16:42:22.783Z,47.45
2022-11-17T16:47:25.948Z,14.48
2022-11-17T16:52:29.478Z,24.63
2022-11-17T16:57:35.137Z,12.65
2022-11-17T17:02:39.214Z,10.15
2022-11-17T17:07:42.715Z,77.95
2022-11-17T17:12:50.326Z,16.67
2022-11-17T17:17:57.345Z,33.58
2022-11-17T17:23:03.218Z,18.75
2022-11-17T17:28:09.741Z,29.95
2022-11-17T17:33:14.395Z,26.90
2022-11-17T17:38:18.712Z,15.07
2022-11-17T17:43:23.745Z,36.25
2022-11-17T17:48:27.771Z,22.67
2022-11-17T17:53:32.167Z,13.18
2022-11-17T17:58:40.673Z,19.40
2022-11-17T18:03:48.086Z,12.80
2022-11-17T18:08:53.166Z,30.85
2022-11-17T18:13:59.382Z,15.88
2022-11-17T18:19:04.368Z,17.60
2022-11-17T18:24:08.977Z,17.52
2022-11-17T18:29:29.953Z,13.63
2022-11-17T18:34:34.718Z,17.20
2022-11-17T18:39:40.298Z,19.45
2022-11-17T18:44:46.107Z,15.95
2022-11-17T18:49:49.313Z,15.75
2022-11-17T18:54:53.340Z,22.98
2022-11-17T18:59:58.417Z,15.13
2022-11-17T19:05:02.272Z,11.32
2022-11-17T19:10:06.383Z,11.40
2022-11-17T19:15:11.798Z,25.88
2022-11-17T19:20:16.080Z,15.98
2022-11-17T19:25:19.670Z,25.67
2022-11-17T19:30:25.051Z,13.00
2022-11-17T19:35:29.457Z,28.27
2022-11-17T19:40:33.022Z,16.13
2022-11-17T19:45:38.103Z,24.50
2022-11-17T19:50:41.500Z,14.82
2022-11-17T19:55:45.443Z,13.50
2022-11-17T20:00:50.771Z,15.02
2022-11-17T20:05:56.478Z,10.32
2022-11-17T20:11:09.921Z,15.73
2022-11-17T20:16:18.966Z,14.43
2022-11-17T20:26:41.036Z,21.83
2022-11-17T20:31:50.592Z,19.33
2022-11-17T20:36:55.475Z,11.60
2022-11-17T20:42:00.222Z,14.15
2022-11-17T20:47:06.124Z,13.60
2022-11-17T20:52:13.399Z,16.40
2022-11-17T20:57:18.959Z,17.40
2022-11-17T21:02:24.818Z,21.48
2022-11-17T21:07:28.846Z,20.55
2022-11-17T21:12:35.049Z,22.90
2022-11-17T21:18:12.679Z,17.27
2022-11-17T21:23:16.539Z,15.82
2022-11-17T21:28:22.193Z,14.80
2022-11-17T21:33:28.339Z,16.02
2022-11-17T21:38:32.518Z,15.00
2022-11-17T21:43:37.113Z,17.60
2022-11-17T21:48:43.822Z,28.65
2022-11-17T21:53:47.894Z,24.95
2022-11-17T21:58:54.959Z,24.27
2022-11-17T22:04:02.219Z,17.85
2022-11-17T22:09:07.571Z,25.02
2022-11-17T22:14:13.095Z,15.35
2022-11-17T22:19:20.102Z,142.70
2022-11-17T22:24:26.457Z,198.65
2022-11-17T22:29:32.865Z,488.50
2022-11-17T22:34:37.790Z,204.60
2022-11-17T22:39:43.574Z,133.75
2022-11-17T22:44:46.846Z,19.67
2022-11-17T22:49:52.254Z,14.73
2022-11-17T22:54:56.026Z,34.38
2022-11-17T22:59:59.600Z,49.80
2022-11-17T23:05:06.030Z,29.63
2022-11-17T23:10:12.286Z,21.80
2022-11-17T23:16:34.384Z,30.42
2022-11-17T23:21:38.139Z,23.73
2022-11-17T23:26:46.425Z,24.92
2022-11-17T23:31:56.753Z,27.40
2022-11-17T23:37:03.880Z,99.97
2022-11-17T23:42:12.856Z,31.77
2022-11-17T23:47:26.527Z,26.57
2022-11-17T23:52:33.229Z,25.73
2022-11-17T23:58:24.896Z,21.08
